Time;durP1;ratioP1;P1;durP2;ratioP2;P2;SDS_P1;SDS_P2;PMS_P1;PMS_P2;Temp;Humidity;BMP_temperature;BMP_pressure;BME280_temperature;BME280_humidity;BME280_pressure;Samples;Min_cycle;Max_cycle;Signal;HPM_P1;HPM_P2
2022/04/15 00:01:56;;;;;;;2.95;2.15;;;;;;;11.31;34.78;94295.75;4905332;29;20399;-77
2022/04/15 00:04:22;;;;;;;3.58;2.20;;;;;;;11.01;34.99;94273.34;4911058;29;20028;-77
2022/04/15 00:06:47;;;;;;;3.65;2.60;;;;;;;11.00;35.15;94296.50;4906557;28;20104;-77
2022/04/15 00:09:12;;;;;;;3.30;1.83;;;;;;;11.18;35.03;94294.75;4896949;28;20040;-77
2022/04/15 00:11:38;;;;;;;2.40;2.10;;;;;;;11.15;34.87;94298.78;4907015;28;20048;-77
2022/04/15 00:14:06;;;;;;;4.85;2.20;;;;;;;11.09;34.74;94294.72;4908317;28;20058;-75
2022/04/15 00:16:31;;;;;;;4.45;2.13;;;;;;;11.08;35.03;94303.78;4909968;29;20024;-77
2022/04/15 00:18:57;;;;;;;3.10;2.17;;;;;;;11.11;35.28;94305.81;4903564;28;20119;-77
2022/04/15 00:21:22;;;;;;;4.00;2.28;;;;;;;11.07;34.88;94304.84;4902405;28;20495;-77
2022/04/15 00:23:48;;;;;;;4.18;2.05;;;;;;;11.14;34.76;94302.56;4901649;29;20048;-76
2022/04/15 00:26:14;;;;;;;5.30;2.10;;;;;;;11.10;35.11;94306.16;4898204;28;20799;-78
2022/04/15 00:28:39;;;;;;;2.70;2.35;;;;;;;10.96;34.82;94279.56;4904639;29;20356;-78
2022/04/15 00:31:05;;;;;;;67.53;6.88;;;;;;;11.02;35.11;94289.00;4905739;29;20475;-77
2022/04/15 00:33:30;;;;;;;16.63;5.22;;;;;;;11.05;34.67;94285.72;4908751;28;20082;-77
2022/04/15 00:35:55;;;;;;;4.72;3.20;;;;;;;11.20;34.76;94303.19;4903272;29;20101;-77
2022/04/15 00:38:21;;;;;;;4.68;2.50;;;;;;;11.14;34.26;94286.59;4899558;28;20443;-78
2022/04/15 00:40:47;;;;;;;2.22;2.03;;;;;;;11.04;34.20;94296.69;4904077;28;20042;-76
2022/04/15 00:43:12;;;;;;;3.10;2.05;;;;;;;11.20;34.10;94299.78;4916490;29;20063;-77
2022/04/15 00:45:38;;;;;;;4.80;3.03;;;;;;;11.10;34.29;94306.16;4899241;29;20487;-77
2022/04/15 00:48:04;;;;;;;4.28;2.97;;;;;;;11.13;34.54;94295.66;4903802;28;20040;-78
2022/04/15 00:50:34;;;;;;;2.92;1.92;;;;;;;11.02;34.60;94297.00;4899864;28;20036;-77
2022/04/15 00:53:06;;;;;;;4.65;2.92;;;;;;;11.01;34.51;94300.75;4909855;28;20306;-77
2022/04/15 00:55:32;;;;;;;2.83;2.05;;;;;;;11.01;34.75;94298.06;4906040;29;20036;-76
2022/04/15 00:58:00;;;;;;;4.78;2.00;;;;;;;11.03;34.91;94303.91;4921302;28;20196;-77
2022/04/15 01:00:27;;;;;;;6.97;2.33;;;;;;;11.07;35.13;94302.19;4907592;29;20039;-77
2022/04/15 01:02:56;;;;;;;3.47;2.00;;;;;;;11.08;35.09;94303.00;4909154;28;20529;-77
2022/04/15 01:05:24;;;;;;;4.90;2.42;;;;;;;11.06;35.15;94311.25;4904855;29;20087;-76
2022/04/15 01:07:51;;;;;;;3.05;1.85;;;;;;;10.96;35.58;94286.75;4909875;29;20032;-77
2022/04/15 01:10:19;;;;;;;4.43;2.22;;;;;;;10.97;35.13;94315.75;4910336;29;20110;-77
2022/04/15 01:12:47;;;;;;;3.85;1.95;;;;;;;9.61;35.55;94100.88;4899063;29;20491;-77
2022/04/15 01:15:13;;;;;;;4.88;2.20;;;;;;;10.92;35.57;94307.09;4913253;29;20035;-77
2022/04/15 01:17:40;;;;;;;3.17;1.73;;;;;;;10.84;35.23;94302.50;4918630;28;20108;-77
2022/04/15 01:20:09;;;;;;;3.38;2.25;;;;;;;10.80;35.34;94286.38;4911694;29;20705;-77
2022/04/15 01:22:44;;;;;;;4.30;2.30;;;;;;;10.86;35.56;94295.78;4908374;29;20316;-76
2022/04/15 01:25:17;;;;;;;5.20;2.60;;;;;;;10.87;35.29;94308.00;4918159;29;20059;-77
2022/04/15 01:27:46;;;;;;;8.00;3.50;;;;;;;10.75;35.40;94286.50;4900697;29;20581;-76
2022/04/15 01:30:16;;;;;;;12.35;5.72;;;;;;;10.84;35.05;94305.97;4911424;28;20046;-78
2022/04/15 01:32:42;;;;;;;12.40;5.63;;;;;;;10.81;35.22;94301.22;4909384;28;20047;-77
2022/04/15 01:35:09;;;;;;;10.68;4.82;;;;;;;10.82;35.31;94291.38;4908794;29;20458;-77
2022/04/15 01:37:35;;;;;;;5.55;2.92;;;;;;;10.83;34.98;94285.75;4905396;29;20478;-77
2022/04/15 01:40:02;;;;;;;5.18;2.42;;;;;;;10.71;34.76;94282.84;4924427;28;20503;-77
2022/04/15 01:42:28;;;;;;;8.77;3.42;;;;;;;10.68;35.21;94272.81;4909437;28;20083;-76
2022/04/15 01:44:53;;;;;;;8.15;3.45;;;;;;;10.67;35.42;94281.88;4910847;28;20039;-76
2022/04/15 01:47:19;;;;;;;3.25;2.42;;;;;;;10.62;35.33;94269.47;4911522;28;20043;-79
2022/04/15 01:49:44;;;;;;;3.50;2.53;;;;;;;10.64;35.38;94251.34;4903983;29;20035;-77
2022/04/15 01:52:09;;;;;;;4.90;3.28;;;;;;;10.74;35.89;94269.75;4897761;29;20060;-77
2022/04/15 01:54:35;;;;;;;3.35;2.20;;;;;;;10.76;35.61;94269.41;4906958;28;20514;-77
2022/04/15 01:57:03;;;;;;;2.30;2.10;;;;;;;10.71;35.81;94278.31;4903901;29;20036;-78
2022/04/15 01:59:29;;;;;;;5.20;1.90;;;;;;;10.63;35.82;94278.25;4922647;28;20347;-78
2022/04/15 02:01:54;;;;;;;5.78;2.40;;;;;;;10.61;35.96;94277.78;4911715;29;20471;-77
2022/04/15 02:04:27;;;;;;;5.20;2.58;;;;;;;10.51;35.95;94264.72;4906511;29;20032;-77
2022/04/15 02:06:53;;;;;;;5.30;2.33;;;;;;;10.57;35.71;94260.81;4913458;28;20120;-77
2022/04/15 02:09:19;;;;;;;3.17;2.55;;;;;;;10.56;35.63;94268.00;4919763;28;20043;-77
2022/04/15 02:11:45;;;;;;;4.47;2.13;;;;;;;10.52;35.64;94259.06;4916579;29;20039;-77
2022/04/15 02:14:12;;;;;;;3.72;2.53;;;;;;;10.62;36.08;94261.50;4907069;28;20067;-77
2022/04/15 02:16:39;;;;;;;5.20;2.28;;;;;;;10.68;35.94;94264.81;4902899;29;20034;-78
2022/04/15 02:19:04;;;;;;;4.72;2.33;;;;;;;10.65;35.93;94265.44;4908941;29;20043;-77
2022/04/15 02:21:30;;;;;;;4.88;2.60;;;;;;;10.41;36.02;94244.47;4903992;29;20090;-77
2022/04/15 02:23:55;;;;;;;6.05;2.60;;;;;;;10.54;36.08;94261.44;4909105;29;20095;-77
2022/04/15 02:26:20;;;;;;;5.28;2.30;;;;;;;10.59;36.10;94258.66;4902822;29;20107;-77
2022/04/15 02:28:46;;;;;;;6.82;2.05;;;;;;;10.45;36.25;94252.63;4905634;29;20028;-77
2022/04/15 02:31:11;;;;;;;3.17;1.92;;;;;;;10.36;36.36;94247.22;4905391;29;20369;-76
2022/04/15 02:33:37;;;;;;;4.85;2.58;;;;;;;10.51;36.29;94259.41;4909632;29;20038;-78
2022/04/15 02:36:04;;;;;;;3.80;1.98;;;;;;;10.51;35.70;94267.38;4912605;29;20569;-76
2022/04/15 02:38:29;;;;;;;3.60;2.45;;;;;;;10.31;36.07;94253.41;4916769;28;20179;-77
2022/04/15 02:40:55;;;;;;;4.68;2.58;;;;;;;10.48;36.25;94262.63;4908450;28;20036;-78
2022/04/15 02:43:22;;;;;;;3.55;2.63;;;;;;;10.39;36.34;94267.88;4900535;29;20798;-78
2022/04/15 02:45:47;;;;;;;5.18;2.22;;;;;;;10.41;36.28;94262.28;4905004;29;20313;-78
2022/04/15 02:48:14;;;;;;;3.80;3.00;;;;;;;10.42;36.36;94263.84;4899140;29;20047;-76
2022/04/15 02:50:39;;;;;;;5.45;2.75;;;;;;;10.39;36.53;94265.22;4913785;29;20035;-78
2022/04/15 02:53:05;;;;;;;4.40;2.55;;;;;;;10.17;36.57;94247.31;4905275;28;20036;-78
2022/04/15 02:55:31;;;;;;;3.50;2.25;;;;;;;10.35;36.98;94266.91;4901591;29;20808;-77
2022/04/15 02:57:56;;;;;;;4.35;2.50;;;;;;;10.25;36.74;94253.81;4910328;29;20447;-78
2022/04/15 03:00:22;;;;;;;2.78;1.73;;;;;;;10.20;36.76;94261.91;4901797;28;20035;-76
2022/04/15 03:02:47;;;;;;;9.80;2.60;;;;;;;9.91;36.83;94213.66;4924015;28;20677;-77
2022/04/15 03:05:13;;;;;;;3.72;2.58;;;;;;;10.15;37.26;94270.78;4912312;29;20051;-78
2022/04/15 03:07:39;;;;;;;2.95;2.10;;;;;;;10.10;37.11;94278.88;4906241;29;20086;-77
2022/04/15 03:10:06;;;;;;;3.70;2.75;;;;;;;10.10;37.43;94272.75;4908643;29;20042;-77
2022/04/15 03:12:35;;;;;;;7.25;2.38;;;;;;;10.04;37.36;94272.06;4905197;28;20040;-76
2022/04/15 03:15:01;;;;;;;3.25;2.10;;;;;;;9.97;37.31;94269.06;4906301;29;20047;-78
2022/04/15 03:17:27;;;;;;;2.92;2.30;;;;;;;9.94;37.45;94253.69;4906595;29;20032;-77
2022/04/15 03:19:52;;;;;;;2.63;2.35;;;;;;;9.76;37.81;94247.41;4900201;28;20573;-77
2022/04/15 03:22:20;;;;;;;5.63;2.88;;;;;;;9.96;37.45;94266.69;4907224;29;20032;-76
2022/04/15 03:24:45;;;;;;;3.83;2.53;;;;;;;10.05;37.72;94271.00;4906387;29;20041;-77
2022/04/15 03:27:11;;;;;;;4.78;2.80;;;;;;;9.92;37.69;94265.72;4910884;29;20036;-77
2022/04/15 03:29:36;;;;;;;6.03;2.47;;;;;;;9.83;37.75;94257.63;4905611;28;20406;-77
2022/04/15 03:32:02;;;;;;;5.82;3.05;;;;;;;9.78;37.56;94265.72;4910166;29;20510;-78
2022/04/15 03:34:27;;;;;;;3.42;2.40;;;;;;;9.81;37.51;94271.22;4907255;29;20032;-77
2022/04/15 03:36:53;;;;;;;4.55;2.50;;;;;;;9.68;37.83;94260.63;4904618;29;20048;-76
2022/04/15 03:39:18;;;;;;;2.80;2.17;;;;;;;9.73;37.86;94265.84;4907403;29;20040;-76
2022/04/15 03:41:43;;;;;;;3.17;1.85;;;;;;;9.85;38.01;94280.19;4918827;28;20528;-77
2022/04/15 03:44:10;;;;;;;4.60;2.17;;;;;;;9.82;38.03;94277.34;4905949;29;20227;-76
2022/04/15 03:46:36;;;;;;;5.28;2.15;;;;;;;9.66;38.16;94265.44;4907528;29;20091;-77
2022/04/15 03:49:01;;;;;;;4.38;2.03;;;;;;;9.68;38.09;94281.88;4907498;28;20118;-77
2022/04/15 03:51:27;;;;;;;4.18;2.42;;;;;;;9.63;38.29;94285.41;4914305;29;20040;-77
2022/04/15 03:53:52;;;;;;;3.78;2.30;;;;;;;9.40;38.70;94265.91;4901951;29;20219;-77
2022/04/15 03:56:17;;;;;;;5.20;2.35;;;;;;;9.59;38.37;94280.94;4916399;29;20515;-77
2022/04/15 03:58:43;;;;;;;3.10;2.17;;;;;;;9.49;38.18;94254.63;4904581;28;20051;-75
2022/04/15 04:01:08;;;;;;;4.32;2.20;;;;;;;9.63;38.02;94287.28;4904792;29;20052;-77
2022/04/15 04:03:34;;;;;;;3.40;2.35;;;;;;;9.60;38.15;94291.28;4909128;29;20110;-77
2022/04/15 04:05:59;;;;;;;2.80;1.98;;;;;;;9.60;38.01;94274.56;4911873;29;20427;-77
2022/04/15 04:08:24;;;;;;;4.65;2.20;;;;;;;9.61;37.94;94284.13;4908245;29;20520;-77
2022/04/15 04:10:50;;;;;;;3.83;2.17;;;;;;;9.57;37.82;94272.50;4904585;28;20031;-77
2022/04/15 04:13:15;;;;;;;5.32;1.92;;;;;;;9.57;38.10;94280.47;4907211;29;20032;-78
2022/04/15 04:15:41;;;;;;;5.95;2.30;;;;;;;9.62;37.97;94270.56;4910645;29;20048;-78
2022/04/15 04:18:06;;;;;;;4.20;2.17;;;;;;;9.69;38.17;94278.09;4919988;28;20091;-78
2022/04/15 04:20:32;;;;;;;3.42;2.05;;;;;;;9.71;38.29;94291.88;4911175;29;20549;-76
2022/04/15 04:22:57;;;;;;;5.65;2.22;;;;;;;9.71;38.38;94286.56;4904078;29;20761;-78
2022/04/15 04:25:23;;;;;;;4.88;2.00;;;;;;;9.75;38.22;94298.19;4908596;28;20514;-77
2022/04/15 04:27:48;;;;;;;2.90;1.88;;;;;;;9.74;38.66;94293.94;4923449;28;20040;-77
2022/04/15 04:30:15;;;;;;;4.28;2.20;;;;;;;9.80;38.94;94298.88;4916281;29;20387;-78
2022/04/15 04:32:49;;;;;;;3.47;1.90;;;;;;;9.88;38.69;94289.41;4909395;28;20220;-76
2022/04/15 04:35:16;;;;;;;6.05;2.05;;;;;;;9.90;39.00;94287.25;4910643;28;20028;-77
2022/04/15 04:37:41;;;;;;;3.47;1.85;;;;;;;9.92;38.83;94293.06;4911724;29;20071;-77
2022/04/15 04:40:07;;;;;;;2.95;2.00;;;;;;;9.87;39.35;94290.50;4911387;29;20566;-77
2022/04/15 04:42:33;;;;;;;6.93;2.13;;;;;;;10.09;38.53;94303.88;4907477;29;20043;-76
2022/04/15 04:44:58;;;;;;;3.15;1.88;;;;;;;10.20;38.68;94307.88;4910370;29;20043;-77
2022/04/15 04:47:24;;;;;;;8.13;2.08;;;;;;;10.19;38.42;94282.38;4913369;29;20183;-77
2022/04/15 04:49:52;;;;;;;3.95;2.30;;;;;;;10.48;38.61;94310.50;4908060;28;20047;-77
2022/04/15 04:52:18;;;;;;;10.77;2.83;;;;;;;10.45;38.52;94305.78;4912700;29;20043;-78
2022/04/15 04:54:44;;;;;;;6.05;3.50;;;;;;;10.29;38.71;94284.81;4911014;28;20545;-77
2022/04/15 04:57:09;;;;;;;4.93;2.92;;;;;;;10.52;39.22;94309.59;4903880;29;20047;-75
2022/04/15 04:59:35;;;;;;;8.43;4.32;;;;;;;10.54;38.91;94317.28;4909599;28;20051;-78
2022/04/15 05:02:00;;;;;;;6.05;3.92;;;;;;;10.37;38.72;94320.56;4901541;28;20048;-76
2022/04/15 05:04:26;;;;;;;8.07;4.38;;;;;;;10.12;38.97;94297.19;4926275;29;20114;-78
2022/04/15 05:06:52;;;;;;;12.43;5.63;;;;;;;10.59;38.74;94311.84;4911417;28;20582;-77
2022/04/15 05:09:18;;;;;;;12.05;6.72;;;;;;;10.86;38.59;94310.97;4911649;29;20455;-78
2022/04/15 05:11:43;;;;;;;15.15;7.07;;;;;;;10.88;38.54;94293.63;4909401;28;20071;-77
2022/04/15 05:14:08;;;;;;;15.23;7.53;;;;;;;10.36;38.68;94307.56;4908293;28;20039;-78
2022/04/15 05:16:34;;;;;;;16.83;6.38;;;;;;;10.89;37.73;94315.69;4915564;29;20090;-78
2022/04/15 05:18:59;;;;;;;11.40;6.13;;;;;;;11.01;37.28;94302.63;4910169;28;20576;-78
2022/04/15 05:21:24;;;;;;;9.52;5.75;;;;;;;10.94;37.47;94300.41;4906189;28;20653;-78
2022/04/15 05:23:50;;;;;;;13.45;5.47;;;;;;;11.11;36.92;94305.03;4923768;28;20040;-76
2022/04/15 05:26:16;;;;;;;15.07;5.68;;;;;;;11.38;36.84;94323.53;4903711;28;20399;-77
2022/04/15 05:28:42;;;;;;;12.07;5.80;;;;;;;11.47;36.96;94312.91;4910455;29;20039;-79
2022/04/15 05:31:11;;;;;;;11.20;6.22;;;;;;;11.49;36.74;94318.72;4903457;28;20054;-78
2022/04/15 05:33:36;;;;;;;14.10;6.47;;;;;;;11.57;36.98;94315.34;4908593;29;21023;-77
2022/04/15 05:36:05;;;;;;;22.42;7.65;;;;;;;11.47;37.15;94300.38;4906617;28;20064;-77
2022/04/15 05:38:30;;;;;;;14.93;6.55;;;;;;;11.65;36.93;94316.47;4927679;28;20048;-77
2022/04/15 05:40:56;;;;;;;13.75;7.40;;;;;;;11.48;37.24;94317.94;4909957;29;20093;-76
2022/04/15 05:43:21;;;;;;;9.55;7.40;;;;;;;11.57;37.22;94315.34;4921628;28;20023;-77
2022/04/15 05:45:47;;;;;;;15.75;9.27;;;;;;;11.72;36.44;94312.28;4907882;29;20068;-77
2022/04/15 05:48:12;;;;;;;14.82;7.53;;;;;;;11.80;36.60;94303.53;4924207;28;20091;-76
2022/04/15 05:50:37;;;;;;;11.93;7.95;;;;;;;11.81;37.09;94304.31;4907650;28;20632;-77
2022/04/15 05:53:03;;;;;;;19.58;7.88;;;;;;;11.98;36.24;94302.47;4913583;28;20407;-76
2022/04/15 05:55:28;;;;;;;19.27;7.68;;;;;;;12.11;35.77;94310.69;4904882;29;20499;-77
2022/04/15 05:57:54;;;;;;;16.25;7.95;;;;;;;12.19;35.76;94297.34;4910613;28;20040;-78
2022/04/15 06:00:22;;;;;;;16.42;8.15;;;;;;;12.31;35.68;94307.44;4912554;29;20784;-76
2022/04/15 06:02:47;;;;;;;20.05;8.75;;;;;;;11.48;37.62;94293.19;4912415;28;20539;-77
2022/04/15 06:05:13;;;;;;;12.48;8.38;;;;;;;11.58;37.87;94315.06;4911393;29;20045;-77
2022/04/15 06:07:38;;;;;;;14.10;9.35;;;;;;;11.62;37.54;94301.09;4912860;29;20036;-77
2022/04/15 06:10:04;;;;;;;16.25;8.52;;;;;;;11.61;37.66;94310.97;4910704;29;20038;-77
2022/04/15 06:15:22;;;;;;;15.07;9.48;;;;;;;11.94;37.05;94308.72;4911260;29;20577;-77
2022/04/15 06:17:49;;;;;;;19.98;9.20;;;;;;;12.29;36.29;94315.72;4906485;29;21295;-77
2022/04/15 06:20:14;;;;;;;17.55;9.48;;;;;;;12.33;36.84;94307.88;4909967;29;20486;-76
2022/04/15 06:22:44;;;;;;;20.40;9.50;;;;;;;12.35;36.49;94303.03;4909571;29;20063;-76
2022/04/15 06:25:10;;;;;;;17.42;11.02;;;;;;;12.72;35.42;94301.66;4912632;29;20126;-76
2022/04/15 06:27:35;;;;;;;19.27;10.35;;;;;;;12.58;35.98;94304.50;4911327;29;20059;-76
2022/04/15 06:30:01;;;;;;;19.67;11.15;;;;;;;11.97;37.64;94308.94;4909403;28;20036;-76
2022/04/15 06:32:26;;;;;;;17.10;10.10;;;;;;;12.31;37.81;94297.56;4911511;29;20516;-76
2022/04/15 06:34:52;;;;;;;21.83;11.82;;;;;;;12.25;37.62;94304.13;4909672;28;20095;-75
2022/04/15 06:37:17;;;;;;;20.58;10.43;;;;;;;12.10;37.57;94285.09;4909378;29;20027;-77
2022/04/15 06:39:43;;;;;;;22.65;11.48;;;;;;;12.45;37.21;94282.19;4911501;29;20399;-76
2022/04/15 06:42:08;;;;;;;20.55;11.35;;;;;;;12.50;36.20;94273.25;4906738;28;20050;-77
2022/04/15 06:44:37;;;;;;;23.45;11.85;;;;;;;12.89;35.62;94297.13;4907954;28;20043;-77
2022/04/15 06:47:03;;;;;;;18.98;11.95;;;;;;;13.06;35.39;94293.63;4911341;28;20532;-76
2022/04/15 06:49:28;;;;;;;20.92;11.90;;;;;;;12.33;36.72;94275.88;4924275;29;20031;-76
2022/04/15 06:51:54;;;;;;;21.75;12.20;;;;;;;12.36;36.88;94300.06;4904187;28;20071;-76
2022/04/15 06:54:19;;;;;;;20.58;12.23;;;;;;;12.27;36.53;94280.56;4911649;29;20044;-76
2022/04/15 06:56:45;;;;;;;17.73;10.98;;;;;;;12.45;36.95;94310.75;4908900;29;20124;-77
2022/04/15 06:59:10;;;;;;;17.63;11.40;;;;;;;12.42;36.19;94269.47;4909223;29;20629;-77
2022/04/15 07:01:35;;;;;;;15.05;10.27;;;;;;;13.19;36.05;94291.91;4903815;29;20028;-76
2022/04/15 07:04:02;;;;;;;22.55;11.27;;;;;;;13.22;35.09;94277.91;4898705;28;20090;-76
2022/04/15 07:06:28;;;;;;;15.82;10.23;;;;;;;13.44;34.96;94280.38;4909892;29;20242;-76
2022/04/15 07:08:54;;;;;;;31.50;12.27;;;;;;;13.61;34.20;94285.69;4898642;29;20042;-76
2022/04/15 07:11:19;;;;;;;19.48;11.57;;;;;;;12.90;34.63;94255.19;4911501;29;20048;-75
2022/04/15 07:13:45;;;;;;;17.30;12.18;;;;;;;12.83;34.84;94276.25;4907275;29;20080;-76
2022/04/15 07:16:10;;;;;;;19.40;11.32;;;;;;;12.91;34.98;94277.34;4907058;29;20091;-75
2022/04/15 07:18:35;;;;;;;19.38;10.77;;;;;;;13.57;34.07;94295.41;4903978;28;20097;-76
2022/04/15 07:21:01;;;;;;;16.15;9.43;;;;;;;13.46;34.08;94283.50;4923312;29;20426;-76
2022/04/15 07:23:26;;;;;;;12.63;8.85;;;;;;;13.24;34.16;94289.84;4910862;29;20048;-76
2022/04/15 07:25:52;;;;;;;14.80;10.18;;;;;;;12.99;34.44;94273.88;4905164;29;20424;-76
2022/04/15 07:28:17;;;;;;;13.20;8.77;;;;;;;13.63;33.26;94293.38;4908514;29;20040;-77
2022/04/15 07:30:43;;;;;;;15.00;7.80;;;;;;;14.01;32.24;94282.69;4909866;29;20498;-76
2022/04/15 07:33:08;;;;;;;9.85;7.95;;;;;;;14.02;32.67;94284.25;4904925;29;20048;-77
2022/04/15 07:35:34;;;;;;;15.57;8.38;;;;;;;13.22;33.17;94265.34;4909627;28;20138;-77
2022/04/15 07:37:59;;;;;;;14.13;7.63;;;;;;;13.14;34.08;94265.38;4911329;29;20032;-76
2022/04/15 07:40:28;;;;;;;11.63;6.97;;;;;;;13.31;32.96;94281.34;4908403;29;20059;-77
2022/04/15 07:42:57;;;;;;;12.80;6.45;;;;;;;13.50;32.28;94255.03;4908024;29;20123;-76
2022/04/15 07:45:23;;;;;;;10.45;6.63;;;;;;;13.61;31.52;94263.50;4903812;29;20606;-75
2022/04/15 07:47:48;;;;;;;9.38;6.97;;;;;;;13.78;31.97;94284.84;4911827;28;20526;-76
2022/04/15 07:50:14;;;;;;;13.00;7.55;;;;;;;14.23;32.10;94273.59;4906072;29;20044;-76
2022/04/15 07:52:40;;;;;;;9.93;6.43;;;;;;;14.08;32.60;94277.63;4908296;29;20043;-77
2022/04/15 07:55:06;;;;;;;8.80;5.72;;;;;;;13.97;31.33;94273.75;4924229;28;20571;-76
2022/04/15 07:57:34;;;;;;;9.93;6.07;;;;;;;14.17;31.09;94276.47;4905153;29;20079;-76
2022/04/15 07:59:59;;;;;;;12.20;5.75;;;;;;;14.39;31.17;94266.53;4914741;29;20039;-76
2022/04/15 08:02:25;;;;;;;11.55;6.28;;;;;;;14.42;30.52;94272.03;4909322;29;20098;-76
2022/04/15 08:04:51;;;;;;;10.40;6.93;;;;;;;14.86;31.24;94273.28;4912982;29;20036;-76
2022/04/15 08:07:18;;;;;;;14.45;7.78;;;;;;;14.29;31.26;94273.06;4914061;29;20043;-75
2022/04/15 08:09:44;;;;;;;18.90;6.85;;;;;;;14.46;31.71;94266.81;4914202;28;20032;-76
2022/04/15 08:12:09;;;;;;;12.20;5.70;;;;;;;14.11;31.57;94271.59;4911961;28;20074;-77
2022/04/15 08:14:35;;;;;;;16.48;6.43;;;;;;;13.99;31.51;94264.28;4911597;28;20553;-77
2022/04/15 08:17:00;;;;;;;8.40;6.05;;;;;;;13.77;32.32;94245.84;4915129;28;20043;-76
2022/04/15 08:19:26;;;;;;;10.10;7.03;;;;;;;13.83;31.93;94255.25;4906492;29;20101;-76
2022/04/15 08:21:51;;;;;;;8.38;5.78;;;;;;;13.77;31.61;94266.44;4911989;28;20040;-75
2022/04/15 08:24:17;;;;;;;8.43;5.57;;;;;;;13.56;31.77;94243.06;4901429;29;20055;-76
2022/04/15 08:26:44;;;;;;;7.20;5.18;;;;;;;13.99;31.31;94260.81;4897726;28;20123;-76
2022/04/15 08:29:10;;;;;;;8.38;5.10;;;;;;;14.45;31.83;94249.97;4908769;29;20095;-76
2022/04/15 08:31:35;;;;;;;11.40;5.72;;;;;;;14.36;31.23;94257.28;4915500;29;20451;-76
2022/04/15 08:34:02;;;;;;;8.20;6.10;;;;;;;14.63;31.06;94260.56;4910128;28;20524;-76
2022/04/15 08:36:27;;;;;;;5.32;4.28;;;;;;;14.45;30.34;94239.28;4911512;28;20637;-76
2022/04/15 08:38:53;;;;;;;8.32;4.40;;;;;;;14.40;29.71;94209.25;4911510;29;20055;-76
2022/04/15 08:41:21;;;;;;;8.07;5.20;;;;;;;14.52;31.00;94244.88;4903851;29;20728;-76
2022/04/15 08:43:46;;;;;;;7.53;4.97;;;;;;;14.78;31.33;94249.25;4910336;28;20036;-76
2022/04/15 08:46:12;;;;;;;11.38;6.57;;;;;;;14.63;31.65;94228.44;4909896;29;20024;-76
2022/04/15 08:48:39;;;;;;;10.82;6.68;;;;;;;14.62;31.99;94243.72;4910188;29;20127;-76
2022/04/15 08:51:06;;;;;;;10.57;6.88;;;;;;;15.14;31.20;94216.47;4913750;29;20043;-76
2022/04/15 08:53:32;;;;;;;9.75;6.65;;;;;;;14.94;30.74;94240.31;4912453;29;20880;-75
2022/04/15 08:55:58;;;;;;;12.73;6.95;;;;;;;15.21;31.24;94236.25;4914296;29;20038;-73
2022/04/15 08:58:27;;;;;;;14.10;7.63;;;;;;;14.89;30.63;94204.91;4910501;29;20020;-74
2022/04/15 09:00:53;;;;;;;11.80;6.03;;;;;;;14.90;30.72;94201.13;4914483;29;20123;-74
2022/04/15 09:03:18;;;;;;;9.43;5.80;;;;;;;14.56;30.41;94221.75;4913112;29;20087;-73
2022/04/15 09:05:49;;;;;;;11.85;5.88;;;;;;;14.86;30.92;94224.31;4905317;29;20051;-74
2022/04/15 09:08:15;;;;;;;7.97;5.97;;;;;;;14.67;31.21;94218.66;4905435;29;20147;-74
2022/04/15 09:10:42;;;;;;;11.48;5.97;;;;;;;15.09;31.25;94208.66;4904874;28;20380;-72
2022/04/15 09:13:19;;;;;;;10.30;5.45;;;;;;;15.38;30.66;94206.59;4912654;29;20027;-74
2022/04/15 09:15:45;;;;;;;7.63;5.22;;;;;;;15.25;30.57;94202.34;4912964;28;20042;-74
2022/04/15 09:18:10;;;;;;;7.90;5.00;;;;;;;15.13;29.66;94194.25;4907878;29;20039;-74
2022/04/15 09:20:35;;;;;;;11.50;4.75;;;;;;;14.98;31.12;94193.00;4908691;28;20036;-74
2022/04/15 09:23:11;;;;;;;6.78;4.40;;;;;;;14.95;29.74;94182.16;4903769;29;20048;-74
2022/04/15 09:25:37;;;;;;;;;;;;;;;15.20;29.80;94186.47;4926976;28;20048;-74
2022/04/15 09:28:02;;;;;;;8.23;4.20;;;;;;;15.04;29.78;94186.31;4906581;28;19926;-74
2022/04/15 09:30:36;;;;;;;7.47;4.60;;;;;;;15.30;29.69;94188.69;4912149;28;20040;-73
2022/04/15 09:33:11;;;;;;;8.77;4.65;;;;;;;15.29;29.70;94184.47;4924118;28;20035;-73
2022/04/15 09:35:36;;;;;;;4.97;4.13;;;;;;;15.57;29.45;94149.78;4910510;28;20035;-74
2022/04/15 09:38:04;;;;;;;6.07;4.60;;;;;;;15.50;29.36;94164.88;4912606;29;20036;-73
2022/04/15 09:40:35;;;;;;;5.25;3.72;;;;;;;15.56;29.10;94152.78;4912536;29;20583;-73
2022/04/15 09:43:02;;;;;;;5.13;3.70;;;;;;;15.67;29.04;94151.22;4911643;29;20048;-74
2022/04/15 09:45:35;;;;;;;6.35;4.18;;;;;;;15.99;28.72;94160.25;4909856;28;20043;-74
2022/04/15 09:48:01;;;;;;;7.70;3.55;;;;;;;16.07;28.60;94151.28;4912795;28;20044;-74
2022/04/15 09:50:31;;;;;;;7.60;3.97;;;;;;;15.99;29.01;94144.91;4908828;28;20063;-74
2022/04/15 09:53:14;;;;;;;8.45;4.30;;;;;;;15.82;29.22;94110.31;4911497;28;20031;-73
2022/04/15 09:55:42;;;;;;;7.18;3.38;;;;;;;16.14;29.01;94141.50;4925785;28;20034;-73
2022/04/15 09:58:13;;;;;;;5.50;3.33;;;;;;;16.19;28.67;94140.50;4910065;29;20255;-74
2022/04/15 10:00:41;;;;;;;3.63;2.35;;;;;;;16.25;27.99;94131.09;4907552;28;20766;-73
2022/04/15 10:03:09;;;;;;;5.40;3.45;;;;;;;16.00;28.00;94124.22;4910611;29;20115;-74
2022/04/15 10:05:38;;;;;;;4.03;3.42;;;;;;;15.99;27.83;94111.94;4910154;28;20157;-73
2022/04/15 10:08:05;;;;;;;6.85;3.47;;;;;;;16.01;28.11;94105.13;4908743;29;20043;-74
2022/04/15 10:10:31;;;;;;;6.18;3.38;;;;;;;16.40;28.36;94102.78;4911049;29;20288;-74
2022/04/15 10:13:01;;;;;;;10.52;4.45;;;;;;;16.60;27.89;94099.09;4916377;29;20802;-73
2022/04/15 10:15:29;;;;;;;7.55;3.95;;;;;;;16.48;28.17;94099.94;4911891;29;20047;-74
2022/04/15 10:17:55;;;;;;;3.95;3.10;;;;;;;16.34;27.71;94080.75;4923361;28;20035;-74
2022/04/15 10:20:21;;;;;;;5.85;4.93;;;;;;;16.54;27.90;94100.47;4910359;28;20050;-74
2022/04/15 10:22:47;;;;;;;6.15;4.10;;;;;;;16.50;27.76;94100.38;4922350;28;20024;-74
2022/04/15 10:25:14;;;;;;;5.72;3.60;;;;;;;16.48;27.61;94077.66;4910139;29;20044;-74
2022/04/15 10:27:39;;;;;;;6.10;3.85;;;;;;;16.71;28.45;94089.44;4910061;29;20130;-73
2022/04/15 10:30:15;;;;;;;7.10;3.25;;;;;;;16.90;28.10;94092.22;4908439;28;20402;-74
2022/04/15 10:32:52;;;;;;;7.22;3.60;;;;;;;16.95;27.52;94078.53;4908458;29;20047;-74
2022/04/15 10:35:31;;;;;;;5.28;2.83;;;;;;;16.95;27.17;94072.38;4913284;28;20060;-73
2022/04/15 10:38:10;;;;;;;5.15;3.50;;;;;;;17.08;26.84;94077.31;4908256;29;20074;-74
2022/04/15 10:40:36;;;;;;;4.85;3.17;;;;;;;16.79;27.44;94053.56;4907422;29;20034;-74
2022/04/15 10:43:17;;;;;;;7.55;3.13;;;;;;;16.78;26.58;94062.72;4903957;28;20426;-74
2022/04/15 10:45:43;;;;;;;6.18;4.03;;;;;;;17.07;27.59;94064.22;4906163;28;20051;-74
2022/04/15 10:48:11;;;;;;;5.22;3.55;;;;;;;17.10;27.05;94064.31;4910878;28;20040;-73
2022/04/15 10:50:39;;;;;;;5.88;3.05;;;;;;;17.06;26.43;94063.44;4922760;28;20040;-73
2022/04/15 10:53:17;;;;;;;3.42;3.00;;;;;;;17.41;26.24;94060.03;4907648;29;20182;-74
2022/04/15 10:55:52;;;;;;;7.07;2.72;;;;;;;17.70;26.35;94038.03;4908440;29;20027;-74
2022/04/15 10:58:19;;;;;;;5.40;2.60;;;;;;;18.26;26.69;94051.88;4909246;29;21053;-74
2022/04/15 11:01:14;;;;;;;6.13;2.65;;;;;;;18.56;25.72;94046.69;4909221;28;20138;-74
2022/04/15 11:03:42;;;;;;;4.72;2.85;;;;;;;18.69;26.71;94058.06;4905464;29;20414;-73
2022/04/15 11:06:09;;;;;;;4.75;2.70;;;;;;;18.34;25.24;94050.09;4912791;29;20146;-74
2022/04/15 11:08:46;;;;;;;3.45;2.60;;;;;;;17.91;25.65;94049.25;4905951;28;20529;-74
2022/04/15 11:11:11;;;;;;;5.07;2.50;;;;;;;18.22;25.82;94047.56;4907455;28;20044;-74
2022/04/15 11:13:40;;;;;;;7.63;2.65;;;;;;;17.82;25.55;94039.81;4906763;29;20059;-74
2022/04/15 11:16:15;;;;;;;5.63;3.10;;;;;;;17.89;25.28;94040.72;4896868;29;20506;-74
2022/04/15 11:18:43;;;;;;;3.28;2.33;;;;;;;18.41;29.91;94036.78;4906542;29;20641;-74
2022/04/15 11:21:16;;;;;;;3.63;2.47;;;;;;;18.64;26.23;94036.81;4900556;29;20044;-74
2022/04/15 11:23:46;;;;;;;4.03;2.60;;;;;;;18.67;25.46;94030.72;4907259;28;20125;-73
2022/04/15 11:26:12;;;;;;;4.55;2.28;;;;;;;18.83;25.34;94018.69;4902735;28;20040;-74
2022/04/15 11:28:39;;;;;;;4.60;2.50;;;;;;;18.81;24.20;94029.06;4911294;29;20032;-75
2022/04/15 11:31:21;;;;;;;5.65;3.03;;;;;;;18.48;24.91;94007.28;4921659;28;20051;-74
2022/04/15 11:33:46;;;;;;;6.05;3.67;;;;;;;18.50;24.13;94015.78;4908219;28;20126;-73